Time;durP1;ratioP1;P1;durP2;ratioP2;P2;SDS_P1;SDS_P2;PMS_P1;PMS_P2;Temp;Humidity;BMP_temperature;BMP_pressure;BME280_temperature;BME280_humidity;BME280_pressure;Samples;Min_cycle;Max_cycle;Signal;HPM_P1;HPM_P2
2022/08/05 00:01:25;;;;;;;2.28;0.70;;;;;;;16.49;51.20;101578.19;5020798;28;20036;-78
2022/08/05 00:03:51;;;;;;;4.95;0.70;;;;;;;16.56;51.19;101565.53;5019207;28;20322;-76
2022/08/05 00:06:17;;;;;;;3.80;0.80;;;;;;;16.46;51.48;101556.38;5019889;28;20116;-77
2022/08/05 00:08:43;;;;;;;4.45;0.60;;;;;;;16.36;52.07;101548.97;5018009;28;20049;-76
2022/08/05 00:11:14;;;;;;;4.18;0.95;;;;;;;16.37;51.95;101542.75;5012323;28;20072;-76
2022/08/05 00:13:42;;;;;;;2.73;0.93;;;;;;;16.32;52.44;101550.06;4998114;28;20065;-76
2022/08/05 00:16:09;;;;;;;5.47;1.00;;;;;;;16.11;52.81;101556.50;5013234;28;20323;-76
2022/08/05 00:18:36;;;;;;;3.58;1.10;;;;;;;16.23;52.93;101555.84;5009278;28;20050;-77
2022/08/05 00:21:02;;;;;;;3.92;0.88;;;;;;;16.23;52.90;101541.81;5011379;28;20033;-77
2022/08/05 00:23:27;;;;;;;6.22;1.40;;;;;;;16.18;53.22;101537.63;5012400;28;20107;-78
2022/08/05 00:25:53;;;;;;;7.22;0.90;;;;;;;16.27;53.16;101541.56;5007019;28;20060;-76
2022/08/05 00:28:18;;;;;;;8.45;1.25;;;;;;;16.34;52.95;101536.81;5009217;28;20097;-76
2022/08/05 00:30:44;;;;;;;1.20;0.70;;;;;;;16.45;52.70;101533.59;4999802;28;20033;-77
2022/08/05 00:33:09;;;;;;;3.33;2.05;;;;;;;16.47;52.53;101543.13;5007990;28;20342;-77
2022/08/05 00:35:35;;;;;;;2.08;0.85;;;;;;;16.51;52.36;101547.31;4994307;28;20449;-75
2022/08/05 00:38:00;;;;;;;1.88;0.93;;;;;;;16.51;52.37;101535.88;5008548;28;20060;-76
2022/08/05 00:40:26;;;;;;;3.17;0.93;;;;;;;16.50;52.37;101536.81;5009820;28;20037;-77
2022/08/05 00:42:53;;;;;;;3.50;0.75;;;;;;;16.39;52.71;101538.25;4993538;28;20830;-78
2022/08/05 00:45:18;;;;;;;3.22;1.30;;;;;;;16.37;52.68;101531.34;5009420;28;21465;-78
2022/08/05 00:47:43;;;;;;;2.25;1.58;;;;;;;16.42;52.96;101524.91;5010822;28;20496;-76
2022/08/05 00:50:09;;;;;;;3.85;1.80;;;;;;;16.39;52.84;101521.56;5023623;28;20091;-78
2022/08/05 00:52:35;;;;;;;4.32;1.70;;;;;;;16.42;52.78;101508.22;5025061;28;20041;-78
2022/08/05 00:55:01;;;;;;;4.25;1.25;;;;;;;16.42;52.68;101509.09;5007176;28;20044;-79
2022/08/05 00:57:26;;;;;;;2.17;0.90;;;;;;;16.42;53.14;101503.81;5016305;28;20046;-77
2022/08/05 00:59:52;;;;;;;4.50;1.60;;;;;;;16.36;53.23;101483.03;5008232;28;20125;-77
2022/08/05 01:02:18;;;;;;;10.57;1.48;;;;;;;16.19;53.50;101472.53;5009143;28;20412;-75
2022/08/05 01:04:43;;;;;;;4.30;1.65;;;;;;;16.15;53.67;101458.69;5009574;28;20152;-78
2022/08/05 01:07:09;;;;;;;3.65;1.75;;;;;;;16.03;54.04;101440.88;5010877;28;20140;-76
2022/08/05 01:09:34;;;;;;;5.32;2.20;;;;;;;15.98;54.71;101437.63;5013676;28;20053;-75
2022/08/05 01:12:10;;;;;;;8.90;2.20;;;;;;;15.87;54.77;101443.47;5009435;28;21848;-77
2022/08/05 01:15:05;;;;;;;6.13;2.45;;;;;;;15.59;55.98;101436.16;4995276;28;20109;-76
2022/08/05 01:17:37;;;;;;;7.22;2.30;;;;;;;15.84;54.94;101427.81;5011233;28;20527;-75
2022/08/05 01:20:38;;;;;;;4.93;1.65;;;;;;;15.49;55.80;101422.63;5006992;28;20315;-77
2022/08/05 01:23:24;;;;;;;3.95;1.48;;;;;;;15.73;55.37;101427.53;5006368;28;20049;-77
2022/08/05 01:26:02;;;;;;;3.65;1.58;;;;;;;15.65;55.07;101417.41;5008633;28;20624;-76
2022/08/05 01:28:35;;;;;;;3.75;1.52;;;;;;;15.50;55.60;101426.94;5009390;28;20073;-77
2022/08/05 01:31:08;;;;;;;2.15;1.17;;;;;;;15.51;55.45;101426.03;5013673;28;20052;-77
2022/08/05 01:33:41;;;;;;;3.55;1.10;;;;;;;15.50;55.38;101434.84;5017120;28;20144;-76
2022/08/05 01:36:12;;;;;;;3.10;1.13;;;;;;;15.51;55.34;101436.56;5022229;28;20030;-77
2022/08/05 01:38:38;;;;;;;2.50;0.85;;;;;;;15.50;55.20;101428.75;5006811;28;20137;-77
2022/08/05 01:41:05;;;;;;;1.33;0.70;;;;;;;15.42;55.15;101425.66;5010082;28;20025;-78
2022/08/05 01:43:32;;;;;;;3.22;1.35;;;;;;;15.56;55.38;101438.97;5010622;28;20045;-78
2022/08/05 01:45:58;;;;;;;2.10;0.55;;;;;;;15.55;54.97;101461.81;5014349;28;20030;-78
2022/08/05 01:48:29;;;;;;;2.85;1.00;;;;;;;15.72;54.59;101481.16;5010138;28;20104;-78
2022/08/05 01:50:56;;;;;;;5.07;0.68;;;;;;;15.87;54.79;101479.53;5009767;28;20034;-75
2022/08/05 01:53:23;;;;;;;1.55;0.60;;;;;;;15.87;54.07;101485.63;5008679;28;20052;-76
2022/08/05 01:55:51;;;;;;;2.03;0.40;;;;;;;15.94;54.04;101501.97;5007602;28;20036;-79
2022/08/05 01:58:18;;;;;;;4.07;0.50;;;;;;;16.09;54.09;101485.38;5005696;28;20045;-76
2022/08/05 02:00:49;;;;;;;3.97;1.02;;;;;;;16.04;53.50;101474.25;4992314;28;20048;-78
2022/08/05 02:03:30;;;;;;;3.17;1.05;;;;;;;16.13;53.72;101480.78;4998139;28;20033;-78
2022/08/05 02:05:56;;;;;;;1.60;1.00;;;;;;;16.10;53.22;101480.94;5012378;28;20034;-78
2022/08/05 02:08:21;;;;;;;5.35;0.93;;;;;;;16.08;53.37;101498.63;5012071;28;20064;-78
2022/08/05 02:10:52;;;;;;;1.90;0.50;;;;;;;16.25;53.70;101511.78;4999724;28;20033;-75
2022/08/05 02:13:26;;;;;;;3.25;0.50;;;;;;;16.29;52.97;101518.59;5009170;28;20074;-78
2022/08/05 02:16:14;;;;;;;2.85;1.00;;;;;;;16.31;52.94;101503.53;5007692;28;20806;-78
2022/08/05 02:18:46;;;;;;;6.00;1.10;;;;;;;16.17;52.84;101508.69;5009444;28;20084;-76
2022/08/05 02:21:16;;;;;;;2.85;0.70;;;;;;;16.21;52.67;101511.06;4998757;28;20037;-77
2022/08/05 02:23:47;;;;;;;0.80;0.40;;;;;;;16.27;53.00;101514.34;5021816;28;20082;-78
2022/08/05 02:26:18;;;;;;;1.67;0.90;;;;;;;16.18;52.58;101495.44;4993799;28;20119;-78
2022/08/05 02:28:46;;;;;;;4.75;0.82;;;;;;;16.06;52.94;101489.97;5010087;28;20281;-77
2022/08/05 02:31:25;;;;;;;4.75;1.17;;;;;;;16.14;52.80;101501.81;5015285;28;20212;-77
2022/08/05 02:33:57;;;;;;;5.38;0.55;;;;;;;16.24;52.91;101514.50;5020035;28;20378;-78
2022/08/05 02:36:24;;;;;;;1.42;0.50;;;;;;;16.26;52.94;101518.75;5010273;28;20052;-77
2022/08/05 02:38:53;;;;;;;1.00;0.38;;;;;;;16.34;52.61;101526.25;5007610;28;20038;-78
2022/08/05 02:41:21;;;;;;;4.43;0.75;;;;;;;16.34;52.56;101527.09;5013798;28;20036;-78
2022/08/05 02:43:48;;;;;;;4.80;0.73;;;;;;;16.31;52.61;101518.50;4996419;28;20037;-79
2022/08/05 02:46:19;;;;;;;4.78;0.43;;;;;;;16.33;52.94;101514.88;5011431;28;20033;-77
2022/08/05 02:48:45;;;;;;;1.08;0.70;;;;;;;16.27;52.08;101509.91;5007173;28;20053;-77
2022/08/05 02:51:13;;;;;;;4.03;0.73;;;;;;;16.10;52.88;101507.31;4998617;28;20034;-77
2022/08/05 02:53:40;;;;;;;4.15;0.50;;;;;;;16.14;53.10;101499.16;5010995;28;22771;-77
2022/08/05 02:56:10;;;;;;;4.88;1.48;;;;;;;16.16;52.74;101496.44;5029383;28;20137;-77
2022/08/05 02:58:39;;;;;;;2.13;1.50;;;;;;;16.12;52.81;101497.53;5014591;28;20049;-77
2022/08/05 03:01:08;;;;;;;3.28;1.15;;;;;;;16.09;52.91;101509.13;4997146;28;20068;-78
2022/08/05 03:03:38;;;;;;;4.03;1.55;;;;;;;16.15;52.86;101508.78;5010981;28;20042;-78
2022/08/05 03:06:04;;;;;;;2.72;0.95;;;;;;;16.15;52.54;101506.16;5010319;28;20029;-77
2022/08/05 03:08:30;;;;;;;2.75;0.90;;;;;;;15.88;53.49;101505.78;5012731;28;20065;-77
2022/08/05 03:10:56;;;;;;;2.50;0.80;;;;;;;15.86;53.52;101510.28;5016210;28;20033;-76
2022/08/05 03:13:21;;;;;;;2.80;1.10;;;;;;;15.80;54.09;101505.34;5014072;28;20088;-78
2022/08/05 03:15:47;;;;;;;1.63;0.88;;;;;;;15.83;54.33;101499.06;5002959;28;20499;-77
2022/08/05 03:18:13;;;;;;;3.35;0.82;;;;;;;15.94;54.35;101497.56;4999975;28;20084;-78
2022/08/05 03:20:39;;;;;;;7.43;1.48;;;;;;;16.00;53.73;101513.09;5017807;28;20200;-76
2022/08/05 03:23:08;;;;;;;3.63;0.88;;;;;;;15.95;53.50;101506.31;5014092;28;20518;-79
2022/08/05 03:25:37;;;;;;;7.45;1.73;;;;;;;15.89;54.20;101507.50;5010640;28;20095;-77
2022/08/05 03:28:05;;;;;;;5.75;1.33;;;;;;;15.92;53.50;101514.38;5010147;28;20534;-75
2022/08/05 03:30:32;;;;;;;2.97;0.95;;;;;;;15.92;54.17;101515.25;5009812;28;20060;-76
2022/08/05 03:32:59;;;;;;;2.95;1.10;;;;;;;15.84;54.06;101522.72;5013603;28;20135;-77
2022/08/05 03:35:25;;;;;;;5.10;0.75;;;;;;;15.89;53.83;101525.94;5010938;28;20551;-78
2022/08/05 03:37:55;;;;;;;7.18;1.30;;;;;;;15.94;53.37;101523.91;5023766;28;20153;-76
2022/08/05 03:40:20;;;;;;;2.35;0.77;;;;;;;16.02;53.67;101512.13;4998580;28;20045;-75
2022/08/05 03:42:46;;;;;;;3.47;0.95;;;;;;;16.01;53.59;101511.28;5022340;28;20389;-76
2022/08/05 03:45:11;;;;;;;6.13;1.27;;;;;;;16.04;53.16;101512.91;5018510;28;20180;-75
2022/08/05 03:47:36;;;;;;;6.20;2.38;;;;;;;15.94;53.00;101523.06;5001593;28;20073;-77
2022/08/05 03:50:02;;;;;;;3.38;1.15;;;;;;;15.88;53.91;101529.50;5012730;28;20491;-78
2022/08/05 03:52:32;;;;;;;2.65;1.42;;;;;;;15.86;54.04;101518.19;5027792;28;20042;-76
2022/08/05 03:55:00;;;;;;;8.68;1.15;;;;;;;15.71;53.96;101522.50;4997310;28;20037;-76
2022/08/05 03:57:32;;;;;;;2.85;0.77;;;;;;;15.79;54.07;101525.59;5019085;28;20099;-76
2022/08/05 04:00:09;;;;;;;4.97;0.80;;;;;;;15.85;54.04;101529.69;5018438;28;21174;-77
2022/08/05 04:02:42;;;;;;;4.47;1.08;;;;;;;15.78;54.16;101521.22;5015566;28;20126;-78
2022/08/05 04:05:09;;;;;;;6.05;1.33;;;;;;;15.74;54.05;101527.59;5016000;28;20091;-76
2022/08/05 04:07:37;;;;;;;4.93;1.20;;;;;;;15.72;54.14;101520.69;5017084;28;20053;-77
2022/08/05 04:10:04;;;;;;;2.22;1.52;;;;;;;15.58;54.24;101517.00;5016679;28;20379;-76
2022/08/05 04:12:30;;;;;;;2.50;0.98;;;;;;;15.72;54.72;101515.44;5019457;28;20046;-77
2022/08/05 04:14:56;;;;;;;3.17;1.27;;;;;;;15.85;54.30;101526.19;5020890;28;20128;-78
2022/08/05 04:17:22;;;;;;;4.18;1.42;;;;;;;15.92;54.13;101536.31;5019235;28;20045;-78
2022/08/05 04:19:47;;;;;;;2.28;0.70;;;;;;;16.03;54.12;101527.03;5034966;28;20021;-78
2022/08/05 04:22:13;;;;;;;2.70;1.33;;;;;;;16.10;53.63;101533.69;5019056;28;20042;-76
2022/08/05 04:24:40;;;;;;;2.78;1.30;;;;;;;16.16;53.62;101543.91;5014774;28;20058;-77
2022/08/05 04:27:06;;;;;;;2.10;1.10;;;;;;;16.24;53.57;101532.94;5018645;28;20053;-76
2022/08/05 04:29:32;;;;;;;2.13;1.00;;;;;;;16.30;53.22;101530.84;5019794;28;20029;-77
2022/08/05 04:31:58;;;;;;;2.00;1.02;;;;;;;16.27;52.91;101533.66;4996926;28;20041;-75
2022/08/05 04:34:23;;;;;;;4.30;1.40;;;;;;;16.38;53.29;101533.91;5012470;28;20476;-77
2022/08/05 04:36:49;;;;;;;1.80;1.02;;;;;;;16.45;52.66;101526.53;5001155;28;20056;-75
2022/08/05 04:39:14;;;;;;;3.42;1.25;;;;;;;16.46;52.20;101522.94;5013544;28;20454;-76
2022/08/05 04:41:40;;;;;;;2.58;0.90;;;;;;;16.52;52.29;101519.13;5013990;28;20029;-77
2022/08/05 04:44:05;;;;;;;6.93;1.50;;;;;;;16.41;51.54;101510.00;5015054;28;20034;-78
2022/08/05 04:46:31;;;;;;;2.17;0.75;;;;;;;16.44;52.03;101516.88;5013510;28;20028;-76
2022/08/05 04:48:57;;;;;;;1.48;1.05;;;;;;;16.44;51.89;101513.41;5010248;28;20656;-77
2022/08/05 04:51:22;;;;;;;2.10;1.20;;;;;;;16.40;51.59;101516.22;5018090;28;20041;-76
2022/08/05 04:53:48;;;;;;;1.25;0.70;;;;;;;16.40;51.69;101524.13;4999501;28;20606;-75
2022/08/05 04:56:13;;;;;;;2.17;1.10;;;;;;;16.35;52.17;101528.81;5009777;28;20234;-76
2022/08/05 04:58:39;;;;;;;1.58;1.00;;;;;;;16.34;52.04;101524.47;5007978;28;20048;-77
2022/08/05 05:01:05;;;;;;;4.82;1.02;;;;;;;16.44;51.92;101526.59;5014593;28;20037;-76
2022/08/05 05:03:31;;;;;;;2.85;0.77;;;;;;;16.36;51.73;101524.41;5007640;28;20058;-77
2022/08/05 05:05:57;;;;;;;2.22;1.40;;;;;;;16.19;51.93;101531.41;5014324;28;20032;-77
2022/08/05 05:08:22;;;;;;;8.48;2.17;;;;;;;16.23;52.25;101524.19;5000309;28;20060;-76
2022/08/05 05:10:47;;;;;;;7.65;1.90;;;;;;;16.21;52.10;101526.06;5015153;28;20179;-77
2022/08/05 05:13:15;;;;;;;8.00;1.35;;;;;;;16.17;51.87;101528.00;5011510;28;20037;-77
2022/08/05 05:15:41;;;;;;;3.15;0.70;;;;;;;16.34;52.31;101524.47;5023288;28;20034;-77
2022/08/05 05:18:08;;;;;;;3.30;1.30;;;;;;;16.15;52.00;101531.66;5010181;28;20511;-78
2022/08/05 05:20:34;;;;;;;7.13;0.90;;;;;;;16.29;51.67;101517.75;5008409;28;20506;-78
2022/08/05 05:23:03;;;;;;;2.28;0.90;;;;;;;16.32;51.84;101521.06;5007286;28;20049;-77
2022/08/05 05:25:29;;;;;;;4.90;1.17;;;;;;;16.14;52.02;101530.81;4998343;28;20084;-78
2022/08/05 05:27:55;;;;;;;6.00;0.85;;;;;;;16.36;51.50;101534.94;5006234;28;20034;-78
2022/08/05 05:30:21;;;;;;;2.83;1.35;;;;;;;16.35;51.50;101534.09;5014095;28;20781;-78
2022/08/05 05:32:47;;;;;;;3.67;1.27;;;;;;;16.37;51.58;101542.75;5014775;28;20495;-78
2022/08/05 05:35:13;;;;;;;8.48;1.25;;;;;;;16.42;51.52;101548.66;5011194;28;20043;-77
2022/08/05 05:37:59;;;;;;;4.28;1.02;;;;;;;16.21;52.06;101547.16;4997200;28;20054;-77
2022/08/05 05:40:26;;;;;;;2.70;1.48;;;;;;;16.17;52.15;101540.34;5013106;28;20043;-76
2022/08/05 05:42:52;;;;;;;2.97;0.73;;;;;;;16.11;52.50;101538.06;5022993;28;20049;-78
2022/08/05 05:45:19;;;;;;;4.32;1.42;;;;;;;16.16;52.36;101533.38;4999819;28;20048;-76
2022/08/05 05:47:45;;;;;;;1.60;0.63;;;;;;;16.25;51.92;101532.03;5012601;28;20054;-76
2022/08/05 05:50:14;;;;;;;1.80;1.00;;;;;;;16.38;51.61;101518.09;5012151;28;20340;-77
2022/08/05 05:52:39;;;;;;;3.25;1.48;;;;;;;16.38;51.71;101533.91;5004781;28;20044;-76
2022/08/05 05:55:08;;;;;;;1.45;0.50;;;;;;;16.27;52.10;101546.00;5006476;28;20061;-77
2022/08/05 05:57:35;;;;;;;1.33;0.60;;;;;;;16.31;52.24;101553.66;5006250;28;20046;-78
2022/08/05 06:00:01;;;;;;;4.85;0.98;;;;;;;16.35;51.44;101547.28;5015047;28;20030;-77
2022/08/05 06:02:26;;;;;;;6.28;2.03;;;;;;;16.31;51.15;101543.09;5012012;28;20901;-76
2022/08/05 06:04:52;;;;;;;2.85;0.63;;;;;;;16.64;50.69;101550.09;4991468;28;20420;-77
2022/08/05 06:07:17;;;;;;;3.58;0.35;;;;;;;16.63;50.04;101543.13;5008596;28;20041;-77
2022/08/05 06:09:43;;;;;;;3.05;0.55;;;;;;;16.86;49.75;101544.50;4996645;28;20029;-77
2022/08/05 06:12:08;;;;;;;5.82;0.80;;;;;;;17.14;49.72;101548.25;5019255;28;20050;-79
2022/08/05 06:14:34;;;;;;;1.27;0.47;;;;;;;17.13;49.11;101536.81;5014935;28;20054;-78
2022/08/05 06:17:00;;;;;;;2.15;0.30;;;;;;;17.24;48.64;101529.13;5013462;28;20079;-76
2022/08/05 06:19:26;;;;;;;3.00;0.50;;;;;;;17.32;48.47;101535.78;4996600;28;20030;-76
2022/08/05 06:21:51;;;;;;;1.63;0.30;;;;;;;17.43;47.65;101531.56;5006432;28;20056;-77
2022/08/05 06:24:17;;;;;;;5.50;1.00;;;;;;;17.57;47.12;101535.22;5012514;28;20509;-77
2022/08/05 06:26:42;;;;;;;3.30;0.20;;;;;;;17.68;47.07;101532.78;4996562;28;20026;-76
2022/08/05 06:29:08;;;;;;;3.15;0.63;;;;;;;17.80;46.69;101536.47;5014287;28;20400;-77
2022/08/05 06:31:34;;;;;;;3.40;0.20;;;;;;;17.67;46.64;101538.13;5017623;28;20097;-76
2022/08/05 06:33:59;;;;;;;2.35;0.20;;;;;;;17.51;46.65;101532.91;5025102;28;20072;-79
2022/08/05 06:36:25;;;;;;;3.38;0.30;;;;;;;17.50;46.79;101528.59;5000275;28;20625;-76
2022/08/05 06:38:53;;;;;;;3.55;0.20;;;;;;;17.78;45.84;101530.41;5011297;28;20084;-77
2022/08/05 06:41:20;;;;;;;0.82;0.20;;;;;;;17.92;45.81;101541.03;5017085;28;20048;-77
2022/08/05 06:43:46;;;;;;;2.85;0.30;;;;;;;17.94;45.29;101539.13;4993914;28;20045;-78
2022/08/05 06:46:11;;;;;;;2.70;0.63;;;;;;;17.79;45.16;101540.06;4999958;28;20159;-77
2022/08/05 06:48:37;;;;;;;2.85;0.40;;;;;;;18.07;44.58;101528.63;5004931;28;20479;-77
2022/08/05 06:51:03;;;;;;;0.98;0.22;;;;;;;17.85;44.84;101542.34;5016161;28;20037;-76
2022/08/05 06:53:29;;;;;;;3.85;0.25;;;;;;;17.69;45.38;101549.47;5001923;28;20492;-77
2022/08/05 06:55:57;;;;;;;1.85;0.20;;;;;;;17.76;44.88;101545.50;4997844;28;20037;-78
2022/08/05 06:58:22;;;;;;;4.38;0.20;;;;;;;18.11;45.06;101550.47;5015626;28;20049;-77
2022/08/05 07:00:48;;;;;;;5.85;0.28;;;;;;;18.39;43.87;101550.50;5028071;28;20543;-78
2022/08/05 07:03:13;;;;;;;4.55;0.98;;;;;;;18.32;43.56;101543.91;4992645;28;20060;-79
2022/08/05 07:05:39;;;;;;;1.70;0.20;;;;;;;18.25;44.41;101548.72;5008322;28;20072;-78
2022/08/05 07:08:06;;;;;;;1.20;0.30;;;;;;;18.36;43.62;101550.66;5016821;28;20041;-76
2022/08/05 07:10:32;;;;;;;1.40;0.10;;;;;;;18.26;43.42;101554.84;5016799;28;20038;-77
2022/08/05 07:18:25;;;;;;;1.20;0.20;;;;;;;18.65;42.75;101564.75;5017088;28;21014;-77
2022/08/05 07:20:51;;;;;;;3.38;0.70;;;;;;;18.72;42.63;101566.97;5017368;28;20025;-78
2022/08/05 07:23:16;;;;;;;3.40;0.25;;;;;;;19.12;41.18;101565.28;5014552;28;20630;-77
2022/08/05 07:25:42;;;;;;;2.78;0.47;;;;;;;19.97;39.19;101562.28;5001889;28;20033;-76
2022/08/05 07:28:07;;;;;;;3.17;0.20;;;;;;;20.46;39.80;101565.03;5014070;28;20085;-78
2022/08/05 07:30:35;;;;;;;1.02;0.20;;;;;;;20.49;38.96;101562.16;5003074;28;20116;-77
2022/08/05 07:33:04;;;;;;;3.70;0.20;;;;;;;21.67;35.75;101571.25;5009835;28;20038;-80
2022/08/05 07:35:30;;;;;;;2.53;0.10;;;;;;;22.46;34.74;101565.97;5016022;28;20038;-78
2022/08/05 07:37:56;;;;;;;0.77;0.20;;;;;;;25.32;29.11;101572.72;5016910;28;20072;-77
2022/08/05 07:40:22;;;;;;;4.80;0.20;;;;;;;25.52;29.61;101569.06;4996038;28;20026;-79
2022/08/05 07:42:48;;;;;;;0.22;0.10;;;;;;;25.15;29.17;101567.09;5016460;28;20156;-77
2022/08/05 07:45:14;;;;;;;1.13;0.10;;;;;;;23.89;31.61;101580.06;5018436;28;20437;-78
2022/08/05 07:47:41;;;;;;;2.10;0.20;;;;;;;23.29;32.63;101575.25;5011393;28;20045;-77
2022/08/05 07:50:07;;;;;;;2.72;0.10;;;;;;;22.39;33.57;101578.09;5025515;28;20034;-77
2022/08/05 07:52:38;;;;;;;1.50;0.20;;;;;;;21.19;35.24;101573.94;5014899;28;20045;-76
2022/08/05 07:55:05;;;;;;;2.13;0.22;;;;;;;20.52;36.40;101577.84;5027506;28;20102;-79
2022/08/05 07:57:30;;;;;;;5.72;1.38;;;;;;;20.50;36.48;101584.25;4999855;28;20053;-78
2022/08/05 07:59:56;;;;;;;1.67;0.80;;;;;;;20.73;36.65;101596.72;5011860;28;20034;-76
2022/08/05 08:02:26;;;;;;;3.80;0.10;;;;;;;21.20;35.76;101590.72;5011192;28;20053;-76
2022/08/05 08:04:52;;;;;;;4.65;0.20;;;;;;;21.79;34.23;101592.53;5016946;28;20065;-76
2022/08/05 08:07:18;;;;;;;1.48;0.10;;;;;;;22.99;32.56;101587.47;4997404;28;20462;-74
2022/08/05 08:09:45;;;;;;;0.50;0.00;;;;;;;23.84;30.38;101585.75;5027173;28;20491;-75
2022/08/05 08:12:13;;;;;;;4.97;0.30;;;;;;;25.65;28.11;101582.16;5012488;28;20049;-75
2022/08/05 08:14:40;;;;;;;1.67;0.35;;;;;;;26.48;26.88;101579.59;5007592;28;20041;-75
2022/08/05 08:17:09;;;;;;;1.63;0.10;;;;;;;27.94;24.08;101581.09;4995486;28;20077;-75
2022/08/05 08:19:39;;;;;;;1.35;0.10;;;;;;;29.73;21.84;101565.53;5000861;28;20039;-76
2022/08/05 08:22:06;;;;;;;0.75;0.20;;;;;;;31.01;20.33;101565.25;5010186;28;20057;-75
2022/08/05 08:24:32;;;;;;;1.95;0.10;;;;;;;29.35;21.76;101573.31;5007479;28;20026;-77
2022/08/05 08:26:58;;;;;;;0.77;0.10;;;;;;;27.32;24.23;101575.81;4990323;28;20045;-77
2022/08/05 08:29:24;;;;;;;1.88;0.10;;;;;;;27.42;24.59;101579.22;5011375;28;20484;-76
2022/08/05 08:31:49;;;;;;;2.90;0.10;;;;;;;25.67;26.12;101572.13;5008327;28;20095;-78
2022/08/05 08:34:21;;;;;;;3.03;0.20;;;;;;;24.56;27.58;101571.50;5008384;28;20022;-75
2022/08/05 08:36:46;;;;;;;;;;;;;;;23.73;29.13;101567.16;5027283;28;20128;-76
2022/08/05 08:39:12;;;;;;;3.97;0.10;;;;;;;23.05;30.90;101574.59;5014339;28;20482;-76
2022/08/05 08:41:40;;;;;;;2.17;0.10;;;;;;;22.82;30.48;101571.16;5003295;28;20538;-73
2022/08/05 08:44:13;;;;;;;3.50;0.15;;;;;;;22.53;31.10;101583.16;4991026;28;20029;-74
2022/08/05 08:46:40;;;;;;;4.43;0.10;;;;;;;22.33;31.49;101582.09;5012504;28;20038;-74
2022/08/05 08:49:07;;;;;;;4.88;0.22;;;;;;;22.21;32.12;101587.56;4992791;28;20219;-74
2022/08/05 08:51:35;;;;;;;0.52;0.00;;;;;;;22.01;31.31;101584.59;5008608;28;20115;-75
2022/08/05 08:54:01;;;;;;;1.35;0.57;;;;;;;21.77;30.98;101585.50;5013728;28;20041;-74
2022/08/05 08:56:27;;;;;;;1.98;0.10;;;;;;;21.60;31.16;101582.44;5008967;28;20107;-76
2022/08/05 08:58:53;;;;;;;1.60;0.30;;;;;;;22.39;29.97;101580.75;5006589;28;20411;-76
2022/08/05 09:01:19;;;;;;;2.90;0.38;;;;;;;23.87;28.69;101585.50;5007548;28;20048;-77
2022/08/05 09:03:49;;;;;;;1.60;0.15;;;;;;;25.92;25.54;101580.53;5019902;28;20729;-76
2022/08/05 09:06:14;;;;;;;14.60;0.65;;;;;;;26.05;25.08;101576.56;5008994;28;20328;-76
2022/08/05 09:08:40;;;;;;;3.20;0.10;;;;;;;24.56;26.68;101571.50;4989312;28;20538;-76
2022/08/05 09:11:06;;;;;;;1.55;0.10;;;;;;;23.73;27.51;101568.00;5013704;28;20072;-76
2022/08/05 09:13:33;;;;;;;2.60;0.30;;;;;;;23.37;28.39;101567.47;4994538;28;20049;-77
2022/08/05 09:15:59;;;;;;;0.10;0.10;;;;;;;23.38;28.42;101570.97;5005627;28;20435;-75
2022/08/05 09:18:24;;;;;;;2.03;0.10;;;;;;;23.12;29.03;101573.09;4992956;28;20050;-76
2022/08/05 09:20:50;;;;;;;1.83;0.00;;;;;;;23.06;30.38;101571.81;5008165;28;20037;-77
2022/08/05 09:23:17;;;;;;;0.80;0.00;;;;;;;24.21;28.30;101570.09;5008214;28;20069;-76
2022/08/05 09:25:46;;;;;;;5.95;0.20;;;;;;;23.18;28.79;101572.59;5005852;28;20032;-77
2022/08/05 09:28:23;;;;;;;1.85;0.25;;;;;;;25.09;25.52;101583.72;5007205;28;20104;-77
2022/08/05 09:30:52;;;;;;;2.95;0.10;;;;;;;26.22;25.02;101572.28;5005035;28;20608;-78
2022/08/05 09:33:17;;;;;;;4.22;0.20;;;;;;;24.77;26.95;101579.44;5012192;28;20152;-77
2022/08/05 09:36:00;;;;;;;4.28;0.17;;;;;;;25.48;27.25;101579.16;4997000;28;20038;-77
2022/08/05 09:38:27;;;;;;;3.03;0.10;;;;;;;25.60;26.82;101573.72;4995198;28;20767;-76
2022/08/05 09:40:53;;;;;;;5.60;0.30;;;;;;;25.17;26.76;101567.78;5009469;28;20116;-76
2022/08/05 09:43:48;;;;;;;0.22;0.00;;;;;;;24.62;27.66;101557.59;5007232;28;20095;-75
2022/08/05 09:46:26;;;;;;;3.03;0.68;;;;;;;23.87;28.65;101563.31;4995700;28;20057;-77
2022/08/05 09:48:53;;;;;;;0.93;0.10;;;;;;;23.29;29.44;101569.91;5003116;28;20046;-77
2022/08/05 09:51:31;;;;;;;0.93;0.10;;;;;;;22.43;30.67;101581.34;5010242;28;20040;-75
2022/08/05 09:53:57;;;;;;;2.85;0.40;;;;;;;22.04;31.35;101571.03;5011330;28;20050;-77
2022/08/05 09:56:28;;;;;;;1.70;0.20;;;;;;;22.19;30.77;101571.69;5008416;28;20037;-76
2022/08/05 09:59:03;;;;;;;1.75;0.10;;;;;;;22.56;30.93;101574.94;5017904;28;20042;-77
2022/08/05 10:01:32;;;;;;;2.30;0.10;;;;;;;23.15;29.83;101567.53;5023547;28;20055;-76
2022/08/05 10:04:11;;;;;;;0.82;0.10;;;;;;;23.14;30.60;101565.84;4979433;28;20554;-76
2022/08/05 10:06:41;;;;;;;2.78;0.40;;;;;;;22.88;30.84;101570.66;4987220;28;20623;-77
2022/08/05 10:09:17;;;;;;;1.95;0.20;;;;;;;22.85;30.22;101563.78;4986952;28;20412;-78
2022/08/05 10:11:44;;;;;;;2.45;0.60;;;;;;;21.99;32.14;101570.56;4995090;28;20096;-76
2022/08/05 10:14:45;;;;;;;1.35;0.10;;;;;;;21.83;31.89;101578.88;4997125;28;20095;-77
2022/08/05 10:17:13;;;;;;;2.40;0.10;;;;;;;21.38;32.48;101569.88;4950638;28;20054;-75
2022/08/05 10:19:39;;;;;;;1.08;0.10;;;;;;;20.97;33.23;101581.81;5001574;28;20046;-76
2022/08/05 10:22:06;;;;;;;0.85;0.17;;;;;;;20.73;33.55;101582.63;5002791;28;20038;-75
2022/08/05 10:24:32;;;;;;;2.05;0.10;;;;;;;20.47;34.67;101593.28;5002515;28;20090;-77
2022/08/05 10:26:59;;;;;;;2.20;0.20;;;;;;;20.40;34.71;101586.72;5016975;28;20054;-77
2022/08/05 10:29:26;;;;;;;1.63;0.10;;;;;;;20.25;35.17;101590.44;5001094;28;20037;-75
2022/08/05 10:31:51;;;;;;;2.65;0.25;;;;;;;20.28;34.64;101587.56;5002728;28;20058;-77
2022/08/05 10:34:18;;;;;;;0.82;0.10;;;;;;;19.91;35.44;101595.41;5014623;28;20025;-77
2022/08/05 10:36:44;;;;;;;0.32;0.10;;;;;;;20.11;35.25;101609.94;5000823;28;20135;-76
2022/08/05 10:39:12;;;;;;;0.70;0.10;;;;;;;20.24;35.59;101594.03;5013458;28;21468;-76
2022/08/05 10:42:00;;;;;;;0.30;0.10;;;;;;;20.29;35.17;101600.75;5000890;28;20124;-78
2022/08/05 10:44:28;;;;;;;6.70;0.17;;;;;;;20.48;35.12;101605.59;5003514;28;20129;-77
2022/08/05 10:46:55;;;;;;;2.28;0.40;;;;;;;20.43;34.36;101605.06;5015727;28;20049;-75
2022/08/05 10:49:23;;;;;;;1.02;0.30;;;;;;;20.49;35.33;101607.28;4996805;28;20029;-76
2022/08/05 10:52:01;;;;;;;1.02;0.10;;;;;;;20.70;35.58;101601.41;4996278;28;20041;-77
2022/08/05 10:54:46;;;;;;;1.75;0.10;;;;;;;21.23;34.12;101599.34;5011585;28;20040;-76
2022/08/05 10:57:24;;;;;;;1.23;0.10;;;;;;;22.44;32.01;101589.22;5015162;28;20079;-75
2022/08/05 11:00:06;;;;;;;1.02;0.20;;;;;;;23.23;30.22;101586.44;5020035;28;20164;-78
2022/08/05 11:02:31;;;;;;;1.73;0.73;;;;;;;23.93;30.86;101589.50;5009777;28;20034;-76
2022/08/05 11:04:57;;;;;;;2.35;0.28;;;;;;;24.58;28.24;101590.91;5000083;28;20033;-78
2022/08/05 11:07:23;;;;;;;2.97;0.28;;;;;;;25.18;27.56;101596.22;5010300;28;20060;-76
2022/08/05 11:09:53;;;;;;;2.38;0.77;;;;;;;25.30;27.13;101591.56;4999483;28;20029;-76
2022/08/05 11:12:35;;;;;;;1.98;0.30;;;;;;;25.42;26.70;101585.09;5018800;28;20063;-77
2022/08/05 11:15:34;;;;;;;2.22;0.10;;;;;;;24.36;28.61;101588.41;5016085;28;20079;-76
2022/08/05 11:18:24;;;;;;;1.38;0.08;;;;;;;23.71;28.98;101591.28;5028996;28;20063;-76
2022/08/05 11:20:50;;;;;;;4.32;0.25;;;;;;;23.72;28.28;101585.00;5016313;28;20491;-79
2022/08/05 11:23:42;;;;;;;1.08;0.10;;;;;;;23.44;29.12;101593.63;5016102;28;20903;-77
2022/08/05 11:26:10;;;;;;;1.40;0.20;;;;;;;23.48;29.39;101603.06;5017413;28;20072;-77
2022/08/05 11:28:42;;;;;;;3.50;0.15;;;;;;;22.75;30.26;101621.44;5017987;28;20041;-77
2022/08/05 11:31:08;;;;;;;1.02;0.20;;;;;;;22.21;31.27;101630.16;5010754;28;20037;-76
2022/08/05 11:33:36;;;;;;;3.25;0.10;;;;;;;20.93;32.68;101637.84;5009635;28;20052;-77
2022/08/05 11:36:06;;;;;;;1.25;0.40;;;;;;;20.37;35.24;101640.00;5027174;28;20045;-77